sensor_id;sensor_type;location;lat;lon;timestamp;pressure;altitude;pressure_sealevel;temperature;humidity
9009;BME280;62813;51.424;6.762;2023-07-13T00:00:23;101120.63;;;20.30;47.68
9009;BME280;62813;51.424;6.762;2023-07-13T00:02:50;101125.69;;;20.41;47.67
9009;BME280;62813;51.424;6.762;2023-07-13T00:05:21;101120.47;;;20.35;47.18
9009;BME280;62813;51.424;6.762;2023-07-13T00:07:49;101128.50;;;20.35;47.36
9009;BME280;62813;51.424;6.762;2023-07-13T00:10:16;101130.38;;;20.09;48.18
9009;BME280;62813;51.424;6.762;2023-07-13T00:12:44;101120.75;;;20.43;47.09
9009;BME280;62813;51.424;6.762;2023-07-13T00:15:20;101127.25;;;20.16;47.42
9009;BME280;62813;51.424;6.762;2023-07-13T00:17:51;101122.50;;;20.30;47.08
9009;BME280;62813;51.424;6.762;2023-07-13T00:20:20;101131.16;;;20.27;47.36
9009;BME280;62813;51.424;6.762;2023-07-13T00:22:49;101127.88;;;20.38;46.53
9009;BME280;62813;51.424;6.762;2023-07-13T00:25:16;101123.28;;;20.56;46.92
9009;BME280;62813;51.424;6.762;2023-07-13T00:27:44;101119.97;;;20.51;47.08
9009;BME280;62813;51.424;6.762;2023-07-13T00:41:03;101128.00;;;20.08;48.16
9009;BME280;62813;51.424;6.762;2023-07-13T00:43:44;101127.69;;;20.18;48.52
9009;BME280;62813;51.424;6.762;2023-07-13T00:48:52;101119.38;;;20.02;48.02
9009;BME280;62813;51.424;6.762;2023-07-13T00:51:24;101127.88;;;20.04;48.57
9009;BME280;62813;51.424;6.762;2023-07-13T00:53:54;101121.72;;;19.95;48.66
9009;BME280;62813;51.424;6.762;2023-07-13T00:56:23;101123.44;;;19.99;48.38
9009;BME280;62813;51.424;6.762;2023-07-13T00:58:50;101124.22;;;20.00;48.24
9009;BME280;62813;51.424;6.762;2023-07-13T01:01:17;101126.78;;;20.14;48.73
9009;BME280;62813;51.424;6.762;2023-07-13T01:03:44;101125.03;;;20.09;48.60
9009;BME280;62813;51.424;6.762;2023-07-13T01:06:11;101128.16;;;20.20;48.46
9009;BME280;62813;51.424;6.762;2023-07-13T01:08:38;101125.66;;;19.97;48.91
9009;BME280;62813;51.424;6.762;2023-07-13T01:11:06;101125.66;;;19.97;49.06
9009;BME280;62813;51.424;6.762;2023-07-13T01:13:34;101132.59;;;19.98;49.17
9009;BME280;62813;51.424;6.762;2023-07-13T01:16:05;101131.16;;;19.92;49.11
9009;BME280;62813;51.424;6.762;2023-07-13T01:18:38;101124.41;;;19.86;48.88
9009;BME280;62813;51.424;6.762;2023-07-13T01:21:05;101129.91;;;19.90;49.50
9009;BME280;62813;51.424;6.762;2023-07-13T01:23:32;101119.66;;;20.09;48.71
9009;BME280;62813;51.424;6.762;2023-07-13T01:25:59;101117.66;;;20.06;48.93
9009;BME280;62813;51.424;6.762;2023-07-13T01:28:27;101122.69;;;19.90;49.43
9009;BME280;62813;51.424;6.762;2023-07-13T01:30:56;101123.59;;;19.77;49.38
9009;BME280;62813;51.424;6.762;2023-07-13T01:33:24;101114.97;;;19.89;49.26
9009;BME280;62813;51.424;6.762;2023-07-13T01:35:50;101131.47;;;20.17;48.89
9009;BME280;62813;51.424;6.762;2023-07-13T01:38:19;101120.75;;;19.74;49.66
9009;BME280;62813;51.424;6.762;2023-07-13T01:40:47;101121.88;;;19.81;49.73
9009;BME280;62813;51.424;6.762;2023-07-13T01:43:14;101131.94;;;19.93;49.64
9009;BME280;62813;51.424;6.762;2023-07-13T01:45:40;101120.00;;;19.90;49.62
9009;BME280;62813;51.424;6.762;2023-07-13T01:48:11;101124.41;;;19.95;49.23
9009;BME280;62813;51.424;6.762;2023-07-13T01:50:38;101128.78;;;19.82;50.00
9009;BME280;62813;51.424;6.762;2023-07-13T01:53:06;101130.34;;;19.83;50.02
9009;BME280;62813;51.424;6.762;2023-07-13T01:55:33;101135.56;;;19.80;50.50
9009;BME280;62813;51.424;6.762;2023-07-13T01:58:00;101133.34;;;19.64;50.65
9009;BME280;62813;51.424;6.762;2023-07-13T02:00:27;101139.13;;;19.58;50.67
9009;BME280;62813;51.424;6.762;2023-07-13T02:02:54;101133.66;;;19.63;51.01
9009;BME280;62813;51.424;6.762;2023-07-13T02:05:21;101137.88;;;19.55;51.11
9009;BME280;62813;51.424;6.762;2023-07-13T02:07:47;101139.91;;;19.58;50.94
9009;BME280;62813;51.424;6.762;2023-07-13T02:10:14;101137.72;;;19.52;51.34
9009;BME280;62813;51.424;6.762;2023-07-13T02:12:42;101138.91;;;19.37;51.86
9009;BME280;62813;51.424;6.762;2023-07-13T02:15:09;101135.81;;;19.52;51.52
9009;BME280;62813;51.424;6.762;2023-07-13T02:17:36;101135.16;;;19.38;51.60
9009;BME280;62813;51.424;6.762;2023-07-13T02:20:04;101128.91;;;19.60;50.91
9009;BME280;62813;51.424;6.762;2023-07-13T02:22:31;101129.56;;;19.74;50.17
9009;BME280;62813;51.424;6.762;2023-07-13T02:24:57;101133.75;;;19.49;51.07
9009;BME280;62813;51.424;6.762;2023-07-13T02:27:24;101139.78;;;19.55;50.75
9009;BME280;62813;51.424;6.762;2023-07-13T02:29:51;101143.78;;;19.44;51.15
9009;BME280;62813;51.424;6.762;2023-07-13T02:32:18;101142.28;;;19.60;50.82
9009;BME280;62813;51.424;6.762;2023-07-13T02:34:44;101149.41;;;19.34;51.80
9009;BME280;62813;51.424;6.762;2023-07-13T02:37:11;101151.16;;;19.30;51.42
9009;BME280;62813;51.424;6.762;2023-07-13T02:39:38;101145.84;;;19.38;51.33
9009;BME280;62813;51.424;6.762;2023-07-13T02:42:05;101147.41;;;19.39;51.54
9009;BME280;62813;51.424;6.762;2023-07-13T02:44:32;101160.63;;;19.44;51.20
9009;BME280;62813;51.424;6.762;2023-07-13T02:46:58;101146.22;;;19.54;51.68
9009;BME280;62813;51.424;6.762;2023-07-13T02:49:25;101150.22;;;19.43;52.02
9009;BME280;62813;51.424;6.762;2023-07-13T02:51:52;101151.19;;;19.38;52.57
9009;BME280;62813;51.424;6.762;2023-07-13T02:54:19;101146.22;;;19.23;52.50
9009;BME280;62813;51.424;6.762;2023-07-13T02:56:46;101149.72;;;19.32;52.02
9009;BME280;62813;51.424;6.762;2023-07-13T02:59:12;101154.56;;;19.21;52.21
9009;BME280;62813;51.424;6.762;2023-07-13T03:01:39;101149.56;;;19.28;52.33
9009;BME280;62813;51.424;6.762;2023-07-13T03:04:06;101153.19;;;18.93;53.56
9009;BME280;62813;51.424;6.762;2023-07-13T03:06:33;101154.34;;;19.09;52.66
9009;BME280;62813;51.424;6.762;2023-07-13T03:09:00;101157.59;;;19.28;52.69
9009;BME280;62813;51.424;6.762;2023-07-13T03:11:26;101153.91;;;19.16;52.48
9009;BME280;62813;51.424;6.762;2023-07-13T03:13:54;101151.72;;;19.18;53.34
9009;BME280;62813;51.424;6.762;2023-07-13T03:16:21;101159.13;;;19.21;52.84
9009;BME280;62813;51.424;6.762;2023-07-13T03:18:48;101160.38;;;19.23;53.09
9009;BME280;62813;51.424;6.762;2023-07-13T03:21:15;101165.88;;;19.18;52.78
9009;BME280;62813;51.424;6.762;2023-07-13T03:23:42;101174.06;;;19.22;53.07
9009;BME280;62813;51.424;6.762;2023-07-13T03:26:11;101170.56;;;19.13;53.31
9009;BME280;62813;51.424;6.762;2023-07-13T03:28:40;101170.94;;;19.28;52.61
9009;BME280;62813;51.424;6.762;2023-07-13T03:31:16;101175.44;;;19.11;53.36
9009;BME280;62813;51.424;6.762;2023-07-13T03:33:43;101170.19;;;19.06;53.75
9009;BME280;62813;51.424;6.762;2023-07-13T03:36:18;101174.63;;;19.10;53.39
9009;BME280;62813;51.424;6.762;2023-07-13T03:38:50;101169.00;;;19.12;53.02
9009;BME280;62813;51.424;6.762;2023-07-13T03:41:17;101184.22;;;19.11;53.58
9009;BME280;62813;51.424;6.762;2023-07-13T03:43:44;101183.66;;;18.92;54.50
9009;BME280;62813;51.424;6.762;2023-07-13T03:46:11;101188.47;;;19.12;53.92
9009;BME280;62813;51.424;6.762;2023-07-13T03:48:38;101188.03;;;19.19;54.01
9009;BME280;62813;51.424;6.762;2023-07-13T03:51:07;101185.09;;;19.29;53.14
9009;BME280;62813;51.424;6.762;2023-07-13T03:53:38;101188.09;;;19.36;53.48
9009;BME280;62813;51.424;6.762;2023-07-13T03:56:05;101189.44;;;19.16;54.10
9009;BME280;62813;51.424;6.762;2023-07-13T03:58:38;101189.38;;;19.08;55.04
9009;BME280;62813;51.424;6.762;2023-07-13T04:01:07;101201.75;;;19.26;54.47
9009;BME280;62813;51.424;6.762;2023-07-13T04:03:35;101189.72;;;19.15;54.65
9009;BME280;62813;51.424;6.762;2023-07-13T04:06:04;101192.81;;;19.31;54.52
9009;BME280;62813;51.424;6.762;2023-07-13T04:08:34;101193.69;;;19.17;54.12
9009;BME280;62813;51.424;6.762;2023-07-13T04:11:02;101194.47;;;19.18;54.41
9009;BME280;62813;51.424;6.762;2023-07-13T04:13:29;101199.16;;;19.12;54.66
9009;BME280;62813;51.424;6.762;2023-07-13T04:15:56;101216.19;;;19.25;54.99
9009;BME280;62813;51.424;6.762;2023-07-13T04:18:23;101205.16;;;19.18;54.71
9009;BME280;62813;51.424;6.762;2023-07-13T04:20:50;101212.28;;;19.00;54.84
9009;BME280;62813;51.424;6.762;2023-07-13T04:23:17;101212.22;;;19.14;54.81
9009;BME280;62813;51.424;6.762;2023-07-13T04:25:46;101217.03;;;19.03;55.05
9009;BME280;62813;51.424;6.762;2023-07-13T04:28:12;101217.81;;;19.04;55.74
9009;BME280;62813;51.424;6.762;2023-07-13T04:30:39;101219.59;;;19.17;55.43
9009;BME280;62813;51.424;6.762;2023-07-13T04:33:06;101219.72;;;19.03;55.74
9009;BME280;62813;51.424;6.762;2023-07-13T04:35:33;101218.13;;;19.02;55.97
9009;BME280;62813;51.424;6.762;2023-07-13T04:37:59;101216.31;;;18.89;55.56
9009;BME280;62813;51.424;6.762;2023-07-13T04:40:27;101221.69;;;18.98;55.83
9009;BME280;62813;51.424;6.762;2023-07-13T04:42:54;101221.53;;;19.25;55.45
9009;BME280;62813;51.424;6.762;2023-07-13T04:45:21;101213.88;;;19.01;55.23
9009;BME280;62813;51.424;6.762;2023-07-13T04:47:47;101222.97;;;19.00;56.23
9009;BME280;62813;51.424;6.762;2023-07-13T04:50:14;101216.34;;;18.98;56.12
9009;BME280;62813;51.424;6.762;2023-07-13T04:52:47;101215.94;;;19.04;55.93
9009;BME280;62813;51.424;6.762;2023-07-13T04:55:14;101212.56;;;19.21;55.05
9009;BME280;62813;51.424;6.762;2023-07-13T04:57:41;101220.09;;;19.19;55.45
9009;BME280;62813;51.424;6.762;2023-07-13T05:00:08;101223.31;;;19.07;55.94
9009;BME280;62813;51.424;6.762;2023-07-13T05:02:37;101217.97;;;19.07;56.22
9009;BME280;62813;51.424;6.762;2023-07-13T05:05:05;101221.69;;;19.20;56.14
9009;BME280;62813;51.424;6.762;2023-07-13T05:07:32;101227.38;;;18.96;56.35
9009;BME280;62813;51.424;6.762;2023-07-13T05:09:59;101227.19;;;18.93;56.63
9009;BME280;62813;51.424;6.762;2023-07-13T05:12:27;101232.72;;;18.96;57.48
9009;BME280;62813;51.424;6.762;2023-07-13T05:14:53;101232.63;;;19.10;55.99
9009;BME280;62813;51.424;6.762;2023-07-13T05:17:20;101231.34;;;19.07;56.56
9009;BME280;62813;51.424;6.762;2023-07-13T05:19:47;101231.88;;;19.18;56.20
9009;BME280;62813;51.424;6.762;2023-07-13T05:22:13;101234.00;;;19.30;55.91
9009;BME280;62813;51.424;6.762;2023-07-13T05:24:40;101230.66;;;19.24;56.44
9009;BME280;62813;51.424;6.762;2023-07-13T05:27:07;101232.84;;;19.22;56.62
9009;BME280;62813;51.424;6.762;2023-07-13T05:29:34;101241.34;;;19.24;56.33
9009;BME280;62813;51.424;6.762;2023-07-13T05:32:00;101247.59;;;19.19;56.56
9009;BME280;62813;51.424;6.762;2023-07-13T05:34:27;101247.66;;;19.28;56.66
9009;BME280;62813;51.424;6.762;2023-07-13T05:36:54;101247.69;;;19.37;56.57
9009;BME280;62813;51.424;6.762;2023-07-13T05:39:20;101256.19;;;19.39;56.05
9009;BME280;62813;51.424;6.762;2023-07-13T05:41:48;101255.72;;;19.37;57.04
9009;BME280;62813;51.424;6.762;2023-07-13T05:44:15;101257.41;;;19.33;56.69
9009;BME280;62813;51.424;6.762;2023-07-13T05:46:41;101265.88;;;19.26;57.36
9009;BME280;62813;51.424;6.762;2023-07-13T05:49:08;101258.19;;;19.33;56.83
9009;BME280;62813;51.424;6.762;2023-07-13T05:51:35;101260.00;;;19.46;56.82
9009;BME280;62813;51.424;6.762;2023-07-13T05:54:01;101263.09;;;19.62;56.66
9009;BME280;62813;51.424;6.762;2023-07-13T05:56:28;101272.72;;;19.72;56.39
9009;BME280;62813;51.424;6.762;2023-07-13T05:58:56;101278.28;;;19.92;55.97
9009;BME280;62813;51.424;6.762;2023-07-13T06:01:23;101274.78;;;19.83;56.00
9009;BME280;62813;51.424;6.762;2023-07-13T06:03:50;101282.47;;;19.76;55.74
9009;BME280;62813;51.424;6.762;2023-07-13T06:06:16;101281.28;;;19.99;55.18
9009;BME280;62813;51.424;6.762;2023-07-13T06:08:43;101288.22;;;20.00;55.64
9009;BME280;62813;51.424;6.762;2023-07-13T06:11:15;101296.72;;;20.02;55.54
9009;BME280;62813;51.424;6.762;2023-07-13T06:13:43;101293.22;;;19.85;55.94
9009;BME280;62813;51.424;6.762;2023-07-13T06:16:10;101294.72;;;19.69;57.05
9009;BME280;62813;51.424;6.762;2023-07-13T06:18:37;101293.41;;;19.57;56.82
9009;BME280;62813;51.424;6.762;2023-07-13T06:23:36;101289.41;;;19.77;56.96
9009;BME280;62813;51.424;6.762;2023-07-13T06:26:04;101299.47;;;19.72;57.02
9009;BME280;62813;51.424;6.762;2023-07-13T06:28:31;101303.00;;;19.89;56.47
9009;BME280;62813;51.424;6.762;2023-07-13T06:30:59;101299.31;;;19.77;57.46
9009;BME280;62813;51.424;6.762;2023-07-13T06:33:26;101302.38;;;19.92;56.80
9009;BME280;62813;51.424;6.762;2023-07-13T06:35:53;101304.41;;;19.87;56.82
9009;BME280;62813;51.424;6.762;2023-07-13T06:38:21;101307.31;;;20.16;55.93
9009;BME280;62813;51.424;6.762;2023-07-13T06:40:48;101313.31;;;20.22;55.62
9009;BME280;62813;51.424;6.762;2023-07-13T06:43:15;101311.94;;;20.42;55.54
9009;BME280;62813;51.424;6.762;2023-07-13T06:45:44;101303.94;;;20.59;55.65
9009;BME280;62813;51.424;6.762;2023-07-13T06:48:17;101316.38;;;20.37;55.21
9009;BME280;62813;51.424;6.762;2023-07-13T06:50:44;101315.50;;;20.20;56.79
9009;BME280;62813;51.424;6.762;2023-07-13T06:53:11;101319.75;;;20.12;56.76
9009;BME280;62813;51.424;6.762;2023-07-13T06:55:39;101323.22;;;20.21;55.93
9009;BME280;62813;51.424;6.762;2023-07-13T06:58:06;101328.72;;;20.16;56.53
9009;BME280;62813;51.424;6.762;2023-07-13T07:00:33;101328.34;;;20.00;57.08
9009;BME280;62813;51.424;6.762;2023-07-13T07:02:59;101332.78;;;20.05;56.74
9009;BME280;62813;51.424;6.762;2023-07-13T07:05:26;101334.91;;;19.86;56.87
9009;BME280;62813;51.424;6.762;2023-07-13T07:07:54;101334.47;;;19.92;57.29
9009;BME280;62813;51.424;6.762;2023-07-13T07:10:21;101335.13;;;19.98;57.02
9009;BME280;62813;51.424;6.762;2023-07-13T07:12:48;101338.41;;;19.95;57.26
9009;BME280;62813;51.424;6.762;2023-07-13T07:15:14;101337.81;;;19.98;57.24
9009;BME280;62813;51.424;6.762;2023-07-13T07:17:41;101343.88;;;19.81;57.47
9009;BME280;62813;51.424;6.762;2023-07-13T07:20:08;101345.75;;;19.81;58.27
9009;BME280;62813;51.424;6.762;2023-07-13T07:22:35;101342.13;;;19.77;58.40
9009;BME280;62813;51.424;6.762;2023-07-13T07:25:02;101336.19;;;19.88;57.83
9009;BME280;62813;51.424;6.762;2023-07-13T07:27:29;101352.06;;;19.85;57.63
9009;BME280;62813;51.424;6.762;2023-07-13T07:29:59;101348.28;;;19.86;58.15
9009;BME280;62813;51.424;6.762;2023-07-13T07:32:30;101343.81;;;20.03;56.75
9009;BME280;62813;51.424;6.762;2023-07-13T07:35:17;101350.44;;;20.06;56.58
9009;BME280;62813;51.424;6.762;2023-07-13T07:37:43;101347.69;;;19.89;57.83
9009;BME280;62813;51.424;6.762;2023-07-13T07:40:13;101356.31;;;19.86;58.08
9009;BME280;62813;51.424;6.762;2023-07-13T07:42:43;101352.28;;;19.97;57.13
9009;BME280;62813;51.424;6.762;2023-07-13T07:45:09;101349.56;;;19.88;57.76
9009;BME280;62813;51.424;6.762;2023-07-13T07:47:38;101356.34;;;19.94;57.58
9009;BME280;62813;51.424;6.762;2023-07-13T07:50:05;101353.28;;;20.18;57.11
9009;BME280;62813;51.424;6.762;2023-07-13T07:52:32;101344.19;;;20.28;56.89
9009;BME280;62813;51.424;6.762;2023-07-13T07:54:59;101344.06;;;20.33;56.24
9009;BME280;62813;51.424;6.762;2023-07-13T07:57:28;101346.44;;;20.34;56.46
9009;BME280;62813;51.424;6.762;2023-07-13T08:00:15;101347.09;;;20.49;56.15
9009;BME280;62813;51.424;6.762;2023-07-13T08:02:45;101349.63;;;20.54;56.05
9009;BME280;62813;51.424;6.762;2023-07-13T08:05:15;101346.66;;;20.72;55.52
9009;BME280;62813;51.424;6.762;2023-07-13T08:07:44;101345.22;;;20.49;56.15
9009;BME280;62813;51.424;6.762;2023-07-13T08:10:11;101346.00;;;20.50;56.20
9009;BME280;62813;51.424;6.762;2023-07-13T08:12:39;101346.16;;;20.53;55.72
9009;BME280;62813;51.424;6.762;2023-07-13T08:15:28;101341.09;;;20.52;56.07
9009;BME280;62813;51.424;6.762;2023-07-13T08:17:55;101340.97;;;20.57;55.57
9009;BME280;62813;51.424;6.762;2023-07-13T08:20:22;101329.16;;;20.66;55.40
9009;BME280;62813;51.424;6.762;2023-07-13T08:22:49;101329.47;;;20.91;54.97
9009;BME280;62813;51.424;6.762;2023-07-13T08:25:16;101330.72;;;21.02;54.58
9009;BME280;62813;51.424;6.762;2023-07-13T08:27:43;101324.56;;;20.93;54.72
9009;BME280;62813;51.424;6.762;2023-07-13T08:30:10;101325.22;;;20.98;55.52
9009;BME280;62813;51.424;6.762;2023-07-13T08:32:36;101328.81;;;21.02;54.74
9009;BME280;62813;51.424;6.762;2023-07-13T08:35:05;101326.50;;;20.92;55.04
9009;BME280;62813;51.424;6.762;2023-07-13T08:37:32;101332.00;;;20.96;54.54
9009;BME280;62813;51.424;6.762;2023-07-13T08:39:58;101330.72;;;20.93;54.54
9009;BME280;62813;51.424;6.762;2023-07-13T08:42:33;101333.41;;;21.02;55.22
9009;BME280;62813;51.424;6.762;2023-07-13T08:45:20;101330.25;;;21.08;54.66
9009;BME280;62813;51.424;6.762;2023-07-13T08:47:55;101322.53;;;21.24;54.26
9009;BME280;62813;51.424;6.762;2023-07-13T08:50:27;101326.44;;;21.27;54.14
9009;BME280;62813;51.424;6.762;2023-07-13T08:53:00;101321.09;;;21.18;54.59
9009;BME280;62813;51.424;6.762;2023-07-13T08:55:31;101319.56;;;21.17;54.08
9009;BME280;62813;51.424;6.762;2023-07-13T08:58:05;101326.16;;;21.20;54.74
9009;BME280;62813;51.424;6.762;2023-07-13T09:00:49;101323.47;;;21.20;55.18
9009;BME280;62813;51.424;6.762;2023-07-13T09:03:22;101328.53;;;21.04;55.84
9009;BME280;62813;51.424;6.762;2023-07-13T09:05:54;101326.47;;;21.18;55.09
9009;BME280;62813;51.424;6.762;2023-07-13T09:11:06;101334.66;;;21.04;55.28
9009;BME280;62813;51.424;6.762;2023-07-13T09:13:52;101335.63;;;21.26;55.85
9009;BME280;62813;51.424;6.762;2023-07-13T09:16:23;101336.44;;;21.18;55.05
9009;BME280;62813;51.424;6.762;2023-07-13T09:18:54;101335.16;;;21.06;55.71
9009;BME280;62813;51.424;6.762;2023-07-13T09:21:26;101341.78;;;21.09;54.88
9009;BME280;62813;51.424;6.762;2023-07-13T09:24:24;101342.09;;;21.25;55.45
9009;BME280;62813;51.424;6.762;2023-07-13T09:26:47;101342.97;;;21.46;55.06
9009;BME280;62813;51.424;6.762;2023-07-13T09:29:21;101340.16;;;21.42;55.68
9009;BME280;62813;51.424;6.762;2023-07-13T09:31:53;101334.31;;;21.49;55.42
9009;BME280;62813;51.424;6.762;2023-07-13T09:34:20;101339.47;;;21.63;55.00
9009;BME280;62813;51.424;6.762;2023-07-13T09:36:47;101346.75;;;21.53;54.29
9009;BME280;62813;51.424;6.762;2023-07-13T09:39:31;101331.88;;;21.65;54.66
9009;BME280;62813;51.424;6.762;2023-07-13T09:42:16;101346.13;;;21.57;54.76
9009;BME280;62813;51.424;6.762;2023-07-13T09:44:55;101336.19;;;21.57;54.19
9009;BME280;62813;51.424;6.762;2023-07-13T09:47:30;101333.84;;;21.47;53.77
9009;BME280;62813;51.424;6.762;2023-07-13T09:50:02;101341.28;;;21.33;53.89
9009;BME280;62813;51.424;6.762;2023-07-13T09:52:44;101343.81;;;21.21;54.50
9009;BME280;62813;51.424;6.762;2023-07-13T09:57:50;101337.84;;;20.98;55.00
9009;BME280;62813;51.424;6.762;2023-07-13T10:00:24;101343.81;;;21.03;55.32
9009;BME280;62813;51.424;6.762;2023-07-13T10:03:20;101332.59;;;21.27;54.66
9009;BME280;62813;51.424;6.762;2023-07-13T10:05:50;101347.44;;;21.33;54.30
9009;BME280;62813;51.424;6.762;2023-07-13T10:08:26;101351.34;;;21.44;53.72
9009;BME280;62813;51.424;6.762;2023-07-13T10:11:02;101358.22;;;21.71;52.96
9009;BME280;62813;51.424;6.762;2023-07-13T10:13:42;101351.69;;;21.89;54.06
9009;BME280;62813;51.424;6.762;2023-07-13T10:16:10;101348.19;;;21.98;52.48
9009;BME280;62813;51.424;6.762;2023-07-13T10:18:44;101352.28;;;22.04;51.28
9009;BME280;62813;51.424;6.762;2023-07-13T10:21:18;101344.72;;;21.97;51.25
9009;BME280;62813;51.424;6.762;2023-07-13T10:24:15;101350.09;;;21.97;51.49
9009;BME280;62813;51.424;6.762;2023-07-13T10:27:12;101348.34;;;22.01;52.80
9009;BME280;62813;51.424;6.762;2023-07-13T10:32:32;101356.13;;;22.23;49.71
9009;BME280;62813;51.424;6.762;2023-07-13T10:34:59;101349.13;;;22.31;49.77
9009;BME280;62813;51.424;6.762;2023-07-13T10:37:33;101347.22;;;22.32;50.24
9009;BME280;62813;51.424;6.762;2023-07-13T10:40:05;101353.44;;;22.23;49.87
9009;BME280;62813;51.424;6.762;2023-07-13T10:42:35;101354.69;;;22.26;49.42
9009;BME280;62813;51.424;6.762;2023-07-13T10:45:13;101350.44;;;22.25;49.31
9009;BME280;62813;51.424;6.762;2023-07-13T10:47:40;101347.59;;;22.21;49.32
9009;BME280;62813;51.424;6.762;2023-07-13T10:50:13;101351.59;;;22.15;50.42
9009;BME280;62813;51.424;6.762;2023-07-13T10:52:43;101351.13;;;22.13;49.59
9009;BME280;62813;51.424;6.762;2023-07-13T11:03:35;101346.19;;;21.86;50.42
9009;BME280;62813;51.424;6.762;2023-07-13T11:06:12;101352.41;;;22.07;50.19
9009;BME280;62813;51.424;6.762;2023-07-13T11:11:37;101355.25;;;22.40;49.17
9009;BME280;62813;51.424;6.762;2023-07-13T11:14:34;101353.09;;;22.54;48.24
9009;BME280;62813;51.424;6.762;2023-07-13T11:22:44;101353.53;;;22.56;47.24
9009;BME280;62813;51.424;6.762;2023-07-13T11:27:52;101341.28;;;22.76;47.40
9009;BME280;62813;51.424;6.762;2023-07-13T11:33:16;101336.72;;;22.89;45.44
9009;BME280;62813;51.424;6.762;2023-07-13T11:35:53;101339.41;;;22.89;45.10
9009;BME280;62813;51.424;6.762;2023-07-13T11:38:32;101330.22;;;22.90;46.19
9009;BME280;62813;51.424;6.762;2023-07-13T11:41:03;101334.34;;;23.08;46.84
9009;BME280;62813;51.424;6.762;2023-07-13T11:43:30;101328.25;;;22.99;46.02
9009;BME280;62813;51.424;6.762;2023-07-13T11:46:24;101330.56;;;22.88;46.69
9009;BME280;62813;51.424;6.762;2023-07-13T11:48:51;101330.19;;;22.78;46.36
9009;BME280;62813;51.424;6.762;2023-07-13T11:51:23;101330.56;;;22.88;45.40
9009;BME280;62813;51.424;6.762;2023-07-13T11:53:54;101322.88;;;22.99;45.12
9009;BME280;62813;51.424;6.762;2023-07-13T11:56:24;101318.81;;;23.14;44.50
9009;BME280;62813;51.424;6.762;2023-07-13T11:58:55;101323.09;;;23.27;43.35
9009;BME280;62813;51.424;6.762;2023-07-13T12:01:28;101329.03;;;23.32;43.92
9009;BME280;62813;51.424;6.762;2023-07-13T12:04:01;101329.50;;;23.34;42.92
9009;BME280;62813;51.424;6.762;2023-07-13T12:06:32;101321.44;;;23.34;43.57
9009;BME280;62813;51.424;6.762;2023-07-13T12:09:00;101327.03;;;23.29;42.81
9009;BME280;62813;51.424;6.762;2023-07-13T12:11:30;101321.09;;;23.36;41.33
9009;BME280;62813;51.424;6.762;2023-07-13T12:14:03;101316.50;;;23.36;42.53
9009;BME280;62813;51.424;6.762;2023-07-13T12:16:32;101328.84;;;23.37;43.29
9009;BME280;62813;51.424;6.762;2023-07-13T12:19:00;101318.66;;;23.43;43.67
9009;BME280;62813;51.424;6.762;2023-07-13T12:21:33;101326.03;;;23.34;44.13
9009;BME280;62813;51.424;6.762;2023-07-13T12:24:01;101325.31;;;23.13;43.20
9009;BME280;62813;51.424;6.762;2023-07-13T12:26:31;101320.28;;;22.90;44.50
9009;BME280;62813;51.424;6.762;2023-07-13T12:29:01;101317.97;;;22.80;44.25
9009;BME280;62813;51.424;6.762;2023-07-13T12:31:40;101313.28;;;22.77;43.79
9009;BME280;62813;51.424;6.762;2023-07-13T12:34:21;101324.88;;;22.69;43.94
9009;BME280;62813;51.424;6.762;2023-07-13T12:39:32;101323.31;;;22.39;44.31
9009;BME280;62813;51.424;6.762;2023-07-13T12:42:23;101331.06;;;22.40;44.17
9009;BME280;62813;51.424;6.762;2023-07-13T12:47:53;101338.75;;;22.21;44.90
9009;BME280;62813;51.424;6.762;2023-07-13T12:50:23;101328.06;;;22.12;45.22
9009;BME280;62813;51.424;6.762;2023-07-13T12:52:53;101331.25;;;22.06;45.63
9009;BME280;62813;51.424;6.762;2023-07-13T12:55:21;101334.63;;;22.03;45.71
9009;BME280;62813;51.424;6.762;2023-07-13T12:57:53;101350.38;;;22.04;46.09
9009;BME280;62813;51.424;6.762;2023-07-13T13:00:33;101361.47;;;21.94;47.99
9009;BME280;62813;51.424;6.762;2023-07-13T13:03:04;101354.28;;;21.77;49.32
9009;BME280;62813;51.424;6.762;2023-07-13T13:06:01;101352.28;;;21.95;48.91
9009;BME280;62813;51.424;6.762;2023-07-13T13:08:32;101359.41;;;22.00;49.20
9009;BME280;62813;51.424;6.762;2023-07-13T13:10:59;101357.44;;;22.17;48.63
9009;BME280;62813;51.424;6.762;2023-07-13T13:13:26;101356.41;;;22.31;48.04
9009;BME280;62813;51.424;6.762;2023-07-13T13:15:52;101358.84;;;22.44;47.78
9009;BME280;62813;51.424;6.762;2023-07-13T13:18:22;101357.16;;;22.60;47.12
9009;BME280;62813;51.424;6.762;2023-07-13T13:20:50;101347.28;;;22.94;46.95
9009;BME280;62813;51.424;6.762;2023-07-13T13:23:19;101339.56;;;23.25;45.08
9009;BME280;62813;51.424;6.762;2023-07-13T13:25:49;101335.34;;;23.36;44.21
9009;BME280;62813;51.424;6.762;2023-07-13T13:28:19;101337.97;;;23.57;45.00
9009;BME280;62813;51.424;6.762;2023-07-13T13:30:50;101332.06;;;23.64;44.01
9009;BME280;62813;51.424;6.762;2023-07-13T13:33:19;101331.63;;;23.86;42.97
9009;BME280;62813;51.424;6.762;2023-07-13T13:35:46;101335.44;;;23.73;42.61
9009;BME280;62813;51.424;6.762;2023-07-13T13:38:15;101330.03;;;23.61;43.75
9009;BME280;62813;51.424;6.762;2023-07-13T13:40:44;101325.78;;;23.27;43.61
9009;BME280;62813;51.424;6.762;2023-07-13T13:43:16;101334.41;;;23.20;43.46
9009;BME280;62813;51.424;6.762;2023-07-13T13:45:44;101339.88;;;23.12;43.48
9009;BME280;62813;51.424;6.762;2023-07-13T13:48:23;101340.84;;;23.07;43.17
9009;BME280;62813;51.424;6.762;2023-07-13T13:50:56;101349.50;;;23.13;44.12
9009;BME280;62813;51.424;6.762;2023-07-13T13:53:23;101341.00;;;23.23;43.57
9009;BME280;62813;51.424;6.762;2023-07-13T13:55:50;101335.19;;;23.21;44.01
9009;BME280;62813;51.424;6.762;2023-07-13T13:58:19;101348.63;;;23.21;43.18
9009;BME280;62813;51.424;6.762;2023-07-13T14:00:47;101348.41;;;23.26;42.96
9009;BME280;62813;51.424;6.762;2023-07-13T14:03:17;101352.13;;;23.33;40.93
9009;BME280;62813;51.424;6.762;2023-07-13T14:05:45;101358.22;;;23.10;41.28